createdAt,value
2022-10-31T00:00:36.161Z,51.215828
2022-10-31T00:01:36.105Z,51.215912
2022-10-31T00:02:36.146Z,51.216122
2022-10-31T00:03:36.113Z,51.216080
2022-10-31T00:04:36.083Z,51.215946
2022-10-31T00:05:36.072Z,51.216038
2022-10-31T00:06:36.068Z,51.216072
2022-10-31T00:07:36.101Z,51.216045
2022-10-31T00:08:36.048Z,51.216049
2022-10-31T00:09:36.044Z,51.215984
2022-10-31T00:10:36.032Z,51.215992
2022-10-31T00:11:36.041Z,51.215977
2022-10-31T00:12:36.023Z,51.215862
2022-10-31T00:13:36.037Z,51.215988
2022-10-31T00:14:36.008Z,51.216080
2022-10-31T00:15:36.002Z,51.216259
2022-10-31T00:16:35.993Z,51.216084
2022-10-31T00:17:35.999Z,51.216068
2022-10-31T00:18:35.997Z,51.216110
2022-10-31T00:19:35.975Z,51.216213
2022-10-31T00:20:35.965Z,51.216152
2022-10-31T00:21:35.958Z,51.216106
2022-10-31T00:22:35.955Z,51.216171
2022-10-31T00:23:35.949Z,51.216194
2022-10-31T00:24:35.951Z,51.216160
2022-10-31T00:25:35.933Z,51.216217
2022-10-31T00:26:35.928Z,51.216145
2022-10-31T00:27:35.924Z,51.216064
2022-10-31T00:28:35.925Z,51.215916
2022-10-31T00:29:35.923Z,51.215992
2022-10-31T00:30:35.904Z,51.216019
2022-10-31T00:31:35.912Z,51.216084
2022-10-31T00:32:35.883Z,51.216099
2022-10-31T00:33:35.874Z,51.216076
2022-10-31T00:34:35.891Z,51.216053
2022-10-31T00:35:35.859Z,51.215977
2022-10-31T00:36:35.868Z,51.215912
2022-10-31T00:37:35.847Z,51.216068
2022-10-31T00:38:35.839Z,51.216000
2022-10-31T00:39:35.843Z,51.216091
2022-10-31T00:40:35.840Z,51.215935
2022-10-31T00:41:35.812Z,51.215939
2022-10-31T00:42:35.821Z,51.215950
2022-10-31T00:43:35.806Z,51.215942
2022-10-31T00:44:35.795Z,51.216133
2022-10-31T00:45:35.803Z,51.216091
2022-10-31T00:46:35.795Z,51.215981
2022-10-31T00:47:35.787Z,51.215874
2022-10-31T00:48:35.800Z,51.215862
2022-10-31T00:49:35.762Z,51.215950
2022-10-31T00:50:35.755Z,51.216095
2022-10-31T00:51:35.792Z,51.216053
2022-10-31T00:52:35.747Z,51.216175
2022-10-31T00:53:35.742Z,51.216148
2022-10-31T00:54:35.726Z,51.216145
2022-10-31T00:55:35.728Z,51.216064
2022-10-31T00:56:35.714Z,51.216164
2022-10-31T00:57:35.727Z,51.216003
2022-10-31T00:58:35.711Z,51.216167
2022-10-31T00:59:35.699Z,51.216183
2022-10-31T01:00:35.696Z,51.216106
2022-10-31T01:01:35.808Z,51.216080
2022-10-31T01:02:35.865Z,51.216072
2022-10-31T01:03:35.664Z,51.216080
2022-10-31T01:04:35.669Z,51.216202
2022-10-31T01:05:35.665Z,51.216141
2022-10-31T01:06:35.644Z,51.216152
2022-10-31T01:07:35.636Z,51.216187
2022-10-31T01:08:35.649Z,51.216110
2022-10-31T01:09:35.628Z,51.216145
2022-10-31T01:10:35.622Z,51.216171
2022-10-31T01:11:35.615Z,51.216103
2022-10-31T01:12:35.620Z,51.216152
2022-10-31T01:13:35.611Z,51.216171
2022-10-31T01:14:35.592Z,51.216145
2022-10-31T01:15:35.583Z,51.216133
2022-10-31T01:16:35.588Z,51.216160
2022-10-31T01:17:35.588Z,51.216190
2022-10-31T01:18:35.587Z,51.216297
2022-10-31T01:19:35.564Z,51.216114
2022-10-31T01:20:35.560Z,51.216137
2022-10-31T01:21:35.554Z,51.216187
2022-10-31T01:22:35.556Z,51.216190
2022-10-31T01:23:35.554Z,51.216232
2022-10-31T01:24:35.536Z,51.216137
2022-10-31T01:25:35.519Z,51.216095
2022-10-31T01:26:35.514Z,51.216068
2022-10-31T01:27:35.506Z,51.216080
2022-10-31T01:28:35.511Z,51.216068
2022-10-31T01:29:35.538Z,51.216095
2022-10-31T01:30:35.491Z,51.216042
2022-10-31T01:31:35.487Z,51.216118
2022-10-31T01:32:35.527Z,51.216217
2022-10-31T01:33:35.479Z,51.215977
2022-10-31T01:34:35.467Z,51.216053
2022-10-31T01:35:35.460Z,51.216091
2022-10-31T01:36:35.458Z,51.216110
2022-10-31T01:37:35.451Z,51.216190
2022-10-31T01:38:35.454Z,51.216122
2022-10-31T01:39:35.461Z,51.216103
2022-10-31T01:40:35.424Z,51.216106
2022-10-31T01:41:35.420Z,51.216099
2022-10-31T01:42:35.399Z,51.216156
2022-10-31T01:43:35.428Z,51.216091
2022-10-31T01:44:35.400Z,51.216160
2022-10-31T01:45:35.386Z,51.216099
2022-10-31T01:46:35.383Z,51.216015
2022-10-31T01:47:35.383Z,51.216015
2022-10-31T01:48:35.362Z,51.216087
2022-10-31T01:49:35.379Z,51.216095
2022-10-31T01:50:35.360Z,51.216137
2022-10-31T01:51:35.352Z,51.216068
2022-10-31T01:52:35.347Z,51.216145
2022-10-31T01:53:35.343Z,51.216137
2022-10-31T01:54:35.331Z,51.216068
2022-10-31T01:55:35.327Z,51.216072
2022-10-31T01:56:35.327Z,51.216091
2022-10-31T01:57:35.299Z,51.216125
2022-10-31T01:58:35.317Z,51.216084
2022-10-31T01:59:35.316Z,51.216061
2022-10-31T02:00:35.297Z,51.216122
2022-10-31T02:01:35.425Z,51.216129
2022-10-31T02:02:35.467Z,51.216003
2022-10-31T02:03:35.275Z,51.215961
2022-10-31T02:04:35.259Z,51.215954
2022-10-31T02:05:35.290Z,51.216148
2022-10-31T02:06:35.252Z,51.216038
2022-10-31T02:07:35.240Z,51.216095
2022-10-31T02:08:35.239Z,51.215977
2022-10-31T02:09:35.237Z,51.216042
2022-10-31T02:10:35.246Z,51.216053
2022-10-31T02:11:35.220Z,51.215977
2022-10-31T02:12:35.220Z,51.216064
2022-10-31T02:13:35.207Z,51.216061
2022-10-31T02:14:35.205Z,51.216072
2022-10-31T02:15:35.198Z,51.216034
2022-10-31T02:16:35.186Z,51.215858
2022-10-31T02:17:35.180Z,51.215866
2022-10-31T02:18:35.179Z,51.215893
2022-10-31T02:19:35.159Z,51.216000
2022-10-31T02:20:35.180Z,51.216007
2022-10-31T02:21:35.173Z,51.216068
2022-10-31T02:22:35.147Z,51.216000
2022-10-31T02:23:35.134Z,51.216053
2022-10-31T02:24:35.139Z,51.215923
2022-10-31T02:25:35.121Z,51.215946
2022-10-31T02:26:35.128Z,51.215946
2022-10-31T02:27:35.110Z,51.216095
2022-10-31T02:28:35.109Z,51.216003
2022-10-31T02:29:35.093Z,51.216000
2022-10-31T02:30:35.104Z,51.216053
2022-10-31T02:31:35.100Z,51.216072
2022-10-31T02:32:35.081Z,51.216179
2022-10-31T02:33:35.072Z,51.216156
2022-10-31T02:34:35.072Z,51.216202
2022-10-31T02:35:35.055Z,51.216061
2022-10-31T02:36:35.054Z,51.216118
2022-10-31T02:37:35.055Z,51.216171
2022-10-31T02:38:35.039Z,51.216152
2022-10-31T02:39:35.036Z,51.216194
2022-10-31T02:40:35.028Z,51.216194
2022-10-31T02:41:35.011Z,51.216198
2022-10-31T02:42:35.036Z,51.216129
2022-10-31T02:43:35.007Z,51.216057
2022-10-31T02:44:35.005Z,51.216209
2022-10-31T02:45:34.994Z,51.216206
2022-10-31T02:46:34.989Z,51.216103
2022-10-31T02:47:34.988Z,51.216114
2022-10-31T02:48:34.985Z,51.216141
2022-10-31T02:49:34.972Z,51.216167
2022-10-31T02:50:34.963Z,51.216156
2022-10-31T02:51:34.952Z,51.216118
2022-10-31T02:52:34.956Z,51.216118
2022-10-31T02:53:34.959Z,51.216175
2022-10-31T02:54:34.939Z,51.216072
2022-10-31T02:55:34.937Z,51.216125
2022-10-31T02:56:34.923Z,51.216122
2022-10-31T02:57:34.919Z,51.216183
2022-10-31T02:58:34.944Z,51.216133
2022-10-31T02:59:34.913Z,51.216103
2022-10-31T03:00:34.901Z,51.216106
2022-10-31T03:01:35.010Z,51.216099
2022-10-31T03:02:35.010Z,51.215919
2022-10-31T03:03:34.895Z,51.215897
2022-10-31T03:04:34.870Z,51.215935
2022-10-31T03:05:34.854Z,51.216019
2022-10-31T03:06:34.869Z,51.216072
2022-10-31T03:07:34.854Z,51.216137
2022-10-31T03:08:34.846Z,51.216106
2022-10-31T03:09:34.854Z,51.216194
2022-10-31T03:10:34.839Z,51.216255
2022-10-31T03:11:34.830Z,51.216137
2022-10-31T03:12:34.817Z,51.215923
2022-10-31T03:13:34.815Z,51.215961
2022-10-31T03:14:34.803Z,51.216011
2022-10-31T03:15:35.798Z,51.216118
2022-10-31T03:16:34.798Z,51.216118
2022-10-31T03:17:34.785Z,51.216171
2022-10-31T03:18:34.785Z,51.216122
2022-10-31T03:19:34.795Z,51.216103
2022-10-31T03:20:34.752Z,51.216164
2022-10-31T03:21:34.759Z,51.216148
2022-10-31T03:22:34.750Z,51.216129
2022-10-31T03:23:34.787Z,51.216198
2022-10-31T03:24:34.750Z,51.216148
2022-10-31T03:25:34.731Z,51.216171
2022-10-31T03:26:34.718Z,51.216141
2022-10-31T03:27:34.712Z,51.216122
2022-10-31T03:28:34.707Z,51.216099
2022-10-31T03:29:34.711Z,51.216099
2022-10-31T03:30:34.690Z,51.216133
2022-10-31T03:31:34.682Z,51.216068
2022-10-31T03:32:34.670Z,51.216129
2022-10-31T03:33:34.664Z,51.215954
2022-10-31T03:34:34.679Z,51.216072
2022-10-31T03:35:34.686Z,51.216087
2022-10-31T03:36:34.666Z,51.216152
2022-10-31T03:37:34.650Z,51.216106
2022-10-31T03:38:34.634Z,51.216118
2022-10-31T03:39:34.627Z,51.216125
2022-10-31T03:40:34.623Z,51.216148
2022-10-31T03:41:34.617Z,51.216057
2022-10-31T03:42:34.615Z,51.215984
2022-10-31T03:43:34.602Z,51.216015
2022-10-31T03:44:35.615Z,51.216049
2022-10-31T03:45:34.595Z,51.216057
2022-10-31T03:46:34.583Z,51.216045
2022-10-31T03:47:34.584Z,51.216084
2022-10-31T03:48:34.582Z,51.216076
2022-10-31T03:49:34.574Z,51.216129
2022-10-31T03:50:34.563Z,51.216110
2022-10-31T03:51:34.575Z,51.216133
2022-10-31T03:52:34.539Z,51.216042
2022-10-31T03:53:34.544Z,51.216095
2022-10-31T03:54:34.535Z,51.216022
2022-10-31T03:55:34.559Z,51.215950
2022-10-31T03:56:34.531Z,51.216068
2022-10-31T03:57:34.570Z,51.216103
2022-10-31T03:58:34.506Z,51.216049
2022-10-31T03:59:34.494Z,51.215981
2022-10-31T04:00:34.487Z,51.216064
2022-10-31T04:01:34.559Z,51.216099
2022-10-31T04:02:34.721Z,51.216011
2022-10-31T04:03:34.483Z,51.216034
2022-10-31T04:04:34.477Z,51.216084
2022-10-31T04:05:34.475Z,51.216125
2022-10-31T04:06:34.478Z,51.216091
2022-10-31T04:07:34.443Z,51.216072
2022-10-31T04:08:34.442Z,51.216057
2022-10-31T04:09:34.438Z,51.216076
2022-10-31T04:10:34.425Z,51.216061
2022-10-31T04:11:34.445Z,51.216053
2022-10-31T04:12:34.410Z,51.216114
2022-10-31T04:13:34.406Z,51.216114
2022-10-31T04:14:34.401Z,51.216072
2022-10-31T04:15:34.401Z,51.216137
2022-10-31T04:16:34.401Z,51.216087
2022-10-31T04:17:34.403Z,51.216114
2022-10-31T04:18:34.378Z,51.216099
2022-10-31T04:19:34.363Z,51.216030
2022-10-31T04:20:34.343Z,51.216003
2022-10-31T04:21:35.349Z,51.216015
2022-10-31T04:22:34.349Z,51.216022
2022-10-31T04:23:34.346Z,51.216038
2022-10-31T04:24:34.321Z,51.216053
2022-10-31T04:25:34.318Z,51.216030
2022-10-31T04:26:34.309Z,51.216045
2022-10-31T04:27:34.318Z,51.216099
2022-10-31T04:28:34.301Z,51.216087
2022-10-31T04:29:34.300Z,51.216125
2022-10-31T04:30:34.289Z,51.216122
2022-10-31T04:31:34.277Z,51.216042
2022-10-31T04:32:34.294Z,51.216007
2022-10-31T04:33:34.267Z,51.216019
2022-10-31T04:34:34.246Z,51.216057
2022-10-31T04:35:35.238Z,51.216053
2022-10-31T04:36:34.246Z,51.216057
2022-10-31T04:37:34.250Z,51.216049
2022-10-31T04:38:34.230Z,51.216000
2022-10-31T04:39:34.227Z,51.216011
2022-10-31T04:40:34.229Z,51.216076
2022-10-31T04:41:34.206Z,51.216095
2022-10-31T04:42:34.207Z,51.216110
2022-10-31T04:43:34.294Z,51.216076
2022-10-31T04:44:34.188Z,51.216084
2022-10-31T04:45:34.182Z,51.216095
2022-10-31T04:46:34.166Z,51.216103
2022-10-31T04:47:34.166Z,51.216068
2022-10-31T04:48:34.210Z,51.216030
2022-10-31T04:49:34.150Z,51.216042
2022-10-31T04:50:34.142Z,51.216045
2022-10-31T04:51:34.142Z,51.216030
2022-10-31T04:52:34.133Z,51.216072
2022-10-31T04:53:34.134Z,51.216049
2022-10-31T04:54:34.124Z,51.216061
2022-10-31T04:55:34.114Z,51.216076
2022-10-31T04:56:34.105Z,51.216072
2022-10-31T04:57:34.101Z,51.216072
2022-10-31T04:58:34.156Z,51.216026
2022-10-31T04:59:34.083Z,51.216091
2022-10-31T05:00:34.073Z,51.216061
2022-10-31T05:01:34.150Z,51.216030
2022-10-31T05:02:34.064Z,51.216122
2022-10-31T05:03:34.065Z,51.216145
2022-10-31T05:04:34.046Z,51.216076
2022-10-31T05:05:34.043Z,51.216141
2022-10-31T05:06:34.037Z,51.216103
2022-10-31T05:07:34.046Z,51.216095
2022-10-31T05:08:34.026Z,51.216072
2022-10-31T05:09:34.033Z,51.216087
2022-10-31T05:10:34.007Z,51.216084
2022-10-31T05:11:34.001Z,51.216103
2022-10-31T05:12:33.993Z,51.216129
2022-10-31T05:13:33.974Z,51.216152
2022-10-31T05:14:33.985Z,51.216148
2022-10-31T05:15:33.975Z,51.216084
2022-10-31T05:16:33.968Z,51.215958
2022-10-31T05:17:33.958Z,51.215969
2022-10-31T05:18:33.949Z,51.215939
2022-10-31T05:19:33.945Z,51.215988
2022-10-31T05:20:33.944Z,51.216015
2022-10-31T05:21:33.922Z,51.216022
2022-10-31T05:22:33.926Z,51.216030
2022-10-31T05:23:33.912Z,51.216053
2022-10-31T05:24:33.918Z,51.216183
2022-10-31T05:25:33.917Z,51.216087
2022-10-31T05:26:33.899Z,51.216103
2022-10-31T05:27:33.890Z,51.216080
2022-10-31T05:28:33.877Z,51.216026
2022-10-31T05:29:33.874Z,51.216148
2022-10-31T05:30:33.877Z,51.216190
2022-10-31T05:31:33.857Z,51.216171
2022-10-31T05:32:33.854Z,51.216076
2022-10-31T05:33:33.844Z,51.216080
2022-10-31T05:34:33.838Z,51.216145
2022-10-31T05:35:33.854Z,51.216114
2022-10-31T05:36:33.853Z,51.216026
2022-10-31T05:37:33.821Z,51.216049
2022-10-31T05:38:33.805Z,51.216125
2022-10-31T05:39:33.800Z,51.216114
2022-10-31T05:40:33.800Z,51.216026
2022-10-31T05:41:33.786Z,51.216064
2022-10-31T05:42:33.786Z,51.215961
2022-10-31T05:43:33.774Z,51.216030
2022-10-31T05:44:33.769Z,51.216072
2022-10-31T05:45:33.772Z,51.216030
2022-10-31T05:47:33.754Z,51.216076
2022-10-31T05:48:33.749Z,51.216053
2022-10-31T05:49:33.737Z,51.216129
2022-10-31T05:50:33.717Z,51.216057
2022-10-31T05:51:33.721Z,51.216061
2022-10-31T05:52:33.713Z,51.216175
2022-10-31T05:53:33.708Z,51.216175
2022-10-31T05:54:33.705Z,51.216225
2022-10-31T05:55:33.692Z,51.216309
2022-10-31T05:56:33.683Z,51.216309
2022-10-31T05:57:33.690Z,51.216206
2022-10-31T05:58:33.674Z,51.216156
2022-10-31T05:59:33.653Z,51.216145
2022-10-31T06:00:33.660Z,51.216114
2022-10-31T06:01:33.725Z,51.216080
2022-10-31T06:02:33.630Z,51.215969
2022-10-31T06:03:33.626Z,51.215954
2022-10-31T06:04:33.674Z,51.215946
2022-10-31T06:05:33.617Z,51.216038
2022-10-31T06:06:33.605Z,51.216042
2022-10-31T06:07:33.617Z,51.216110
2022-10-31T06:08:33.596Z,51.216137
2022-10-31T06:09:33.584Z,51.216022
2022-10-31T06:10:33.584Z,51.216000
2022-10-31T06:11:33.577Z,51.216095
2022-10-31T06:12:33.564Z,51.216110
2022-10-31T06:13:33.570Z,51.216000
2022-10-31T06:14:33.540Z,51.216042
2022-10-31T06:15:33.544Z,51.215992
2022-10-31T06:16:33.537Z,51.215942
2022-10-31T06:17:33.556Z,51.215969
2022-10-31T06:18:33.509Z,51.216034
2022-10-31T06:19:33.519Z,51.215984
2022-10-31T06:20:33.510Z,51.216038
2022-10-31T06:21:33.505Z,51.216122
2022-10-31T06:22:33.514Z,51.216236
2022-10-31T06:23:33.509Z,51.216198
2022-10-31T06:24:33.481Z,51.216221
2022-10-31T06:25:33.472Z,51.216164
2022-10-31T06:26:33.477Z,51.216167
2022-10-31T06:27:33.473Z,51.216141
2022-10-31T06:28:33.469Z,51.216141
2022-10-31T06:29:33.436Z,51.216133
2022-10-31T06:30:33.441Z,51.216084
2022-10-31T06:31:33.444Z,51.216156
2022-10-31T06:32:33.425Z,51.216148
2022-10-31T06:33:33.447Z,51.216187
2022-10-31T06:34:33.413Z,51.216187
2022-10-31T06:35:33.411Z,51.216206
2022-10-31T06:36:33.403Z,51.216206
2022-10-31T06:37:33.389Z,51.216145
2022-10-31T06:38:33.405Z,51.216171
2022-10-31T06:39:33.401Z,51.216202
2022-10-31T06:40:33.378Z,51.216213
2022-10-31T06:41:33.366Z,51.216263
2022-10-31T06:42:33.352Z,51.216183
2022-10-31T06:43:33.355Z,51.216202
2022-10-31T06:44:33.347Z,51.216240
2022-10-31T06:45:33.359Z,51.216228
2022-10-31T06:46:33.329Z,51.216152
2022-10-31T06:47:35.331Z,51.216225
2022-10-31T06:48:34.328Z,51.216148
2022-10-31T06:49:33.297Z,51.216206
2022-10-31T06:50:33.322Z,51.216209
2022-10-31T06:51:33.296Z,51.216343
2022-10-31T06:52:33.272Z,51.216209
2022-10-31T06:53:33.290Z,51.216099
2022-10-31T06:54:33.275Z,51.216125
2022-10-31T06:55:33.250Z,51.216129
2022-10-31T06:56:33.256Z,51.216175
2022-10-31T06:57:33.244Z,51.216270
2022-10-31T06:58:33.249Z,51.216309
2022-10-31T06:59:33.236Z,51.216312
2022-10-31T07:00:33.224Z,51.216381
2022-10-31T07:01:33.366Z,51.216209
2022-10-31T07:02:33.322Z,51.216236
2022-10-31T07:03:33.204Z,51.216099
2022-10-31T07:04:33.198Z,51.216167
2022-10-31T07:05:33.184Z,51.216145
2022-10-31T07:06:33.192Z,51.216194
2022-10-31T07:07:33.164Z,51.216209
2022-10-31T07:08:33.168Z,51.216061
2022-10-31T07:09:33.185Z,51.216129
2022-10-31T07:10:35.710Z,51.216072
2022-10-31T07:11:34.158Z,51.216095
2022-10-31T07:12:33.144Z,51.216072
2022-10-31T07:13:33.124Z,51.216000
2022-10-31T07:14:33.143Z,51.216064
2022-10-31T07:15:33.119Z,51.216053
2022-10-31T07:16:33.116Z,51.216106
2022-10-31T07:17:33.108Z,51.216248
2022-10-31T07:18:33.100Z,51.216396
2022-10-31T07:19:33.092Z,51.216240
2022-10-31T07:20:33.084Z,51.216171
2022-10-31T07:21:33.086Z,51.216129
2022-10-31T07:22:33.068Z,51.215855
2022-10-31T07:23:33.075Z,51.215965
2022-10-31T07:24:34.960Z,51.215954
2022-10-31T07:25:33.061Z,51.216053
2022-10-31T07:26:33.039Z,51.215858
2022-10-31T07:27:33.043Z,51.215763
2022-10-31T07:28:33.032Z,51.215984
2022-10-31T07:29:33.027Z,51.216076
2022-10-31T07:30:33.032Z,51.216145
2022-10-31T07:31:33.008Z,51.216049
2022-10-31T07:32:33.037Z,51.216133
2022-10-31T07:33:34.004Z,51.216091
2022-10-31T07:34:32.991Z,51.216171
2022-10-31T07:35:32.996Z,51.216057
2022-10-31T07:36:32.979Z,51.215839
2022-10-31T07:37:32.979Z,51.215767
2022-10-31T07:38:32.972Z,51.215736
2022-10-31T07:39:32.955Z,51.215649
2022-10-31T07:40:32.967Z,51.215847
2022-10-31T07:41:32.954Z,51.216019
2022-10-31T07:42:32.940Z,51.216232
2022-10-31T07:43:32.931Z,51.216198
2022-10-31T07:44:32.922Z,51.216179
2022-10-31T07:45:32.912Z,51.216103
2022-10-31T07:46:32.924Z,51.216003
2022-10-31T07:47:32.896Z,51.216034
2022-10-31T07:48:32.895Z,51.216129
2022-10-31T07:49:32.890Z,51.216137
2022-10-31T07:50:32.875Z,51.216282
2022-10-31T07:51:32.888Z,51.216190
2022-10-31T07:52:32.863Z,51.216301
2022-10-31T07:53:32.856Z,51.216133
2022-10-31T07:54:32.843Z,51.216099
2022-10-31T07:55:32.835Z,51.216198
2022-10-31T07:56:32.831Z,51.216129
2022-10-31T07:57:34.753Z,51.216148
2022-10-31T07:58:33.821Z,51.216267
2022-10-31T07:59:32.827Z,51.216042
2022-10-31T08:00:32.836Z,51.215816
2022-10-31T08:01:32.805Z,51.214893
2022-10-31T08:02:32.817Z,51.214504
2022-10-31T08:03:32.786Z,51.214451
2022-10-31T08:04:32.784Z,51.214485
2022-10-31T08:05:32.772Z,51.215218
2022-10-31T08:06:32.771Z,51.215591
2022-10-31T08:07:32.792Z,51.215874
2022-10-31T08:08:34.714Z,51.215927
2022-10-31T08:09:33.748Z,51.215958
2022-10-31T08:10:32.733Z,51.216114
2022-10-31T08:11:32.734Z,51.215984
2022-10-31T08:12:32.717Z,51.215954
2022-10-31T08:13:32.730Z,51.216164
2022-10-31T08:14:32.707Z,51.216148
2022-10-31T08:15:32.698Z,51.216293
2022-10-31T08:16:32.723Z,51.215946
2022-10-31T08:17:32.686Z,51.216064
2022-10-31T08:18:32.691Z,51.215797
2022-10-31T08:19:32.669Z,51.215900
2022-10-31T08:20:32.698Z,51.215500
2022-10-31T08:21:32.677Z,51.215740
2022-10-31T08:22:32.651Z,51.215805
2022-10-31T08:23:32.674Z,51.215744
2022-10-31T08:24:32.690Z,51.215916
2022-10-31T08:25:35.598Z,51.216106
2022-10-31T08:26:33.629Z,51.216042
2022-10-31T08:27:32.607Z,51.216015
2022-10-31T08:28:32.619Z,51.216072
2022-10-31T08:29:32.604Z,51.216164
2022-10-31T08:30:32.595Z,51.216152
2022-10-31T08:31:35.009Z,51.216160
2022-10-31T08:32:33.580Z,51.216213
2022-10-31T08:33:32.570Z,51.216293
2022-10-31T08:34:32.574Z,51.216446
2022-10-31T08:35:32.559Z,51.216228
2022-10-31T08:36:32.557Z,51.216000
2022-10-31T08:37:32.541Z,51.215916
2022-10-31T08:38:32.526Z,51.216061
2022-10-31T08:39:32.534Z,51.216328
2022-10-31T08:40:32.518Z,51.216152
2022-10-31T08:41:32.506Z,51.215939
2022-10-31T08:42:32.498Z,51.215816
2022-10-31T08:43:32.494Z,51.216068
2022-10-31T08:44:32.505Z,51.215958
2022-10-31T08:45:32.483Z,51.216000
2022-10-31T08:46:32.470Z,51.216053
2022-10-31T08:47:32.466Z,51.216057
2022-10-31T08:48:32.457Z,51.216011
2022-10-31T08:49:32.479Z,51.215824
2022-10-31T08:50:32.451Z,51.215988
2022-10-31T08:51:32.502Z,51.216156
2022-10-31T08:52:58.732Z,51.216179
2022-10-31T08:53:34.436Z,51.216156
2022-10-31T08:54:32.432Z,51.216095
2022-10-31T08:55:32.437Z,51.216007
2022-10-31T08:56:32.421Z,51.216042
2022-10-31T08:57:32.398Z,51.215931
2022-10-31T08:58:36.291Z,51.216011
2022-10-31T08:59:34.397Z,51.216087
2022-10-31T09:00:32.449Z,51.215988
2022-10-31T09:01:32.519Z,51.215912
2022-10-31T09:02:32.374Z,51.215965
2022-10-31T09:03:32.361Z,51.216034
2022-10-31T09:04:32.361Z,51.216118
2022-10-31T09:05:32.443Z,51.216160
2022-10-31T09:06:32.353Z,51.215919
2022-10-31T09:07:32.341Z,51.216087
2022-10-31T09:08:32.344Z,51.215942
2022-10-31T09:09:32.326Z,51.216030
2022-10-31T09:10:32.347Z,51.216042
2022-10-31T09:11:32.320Z,51.216080
2022-10-31T09:12:32.315Z,51.216011
2022-10-31T09:13:32.294Z,51.215984
2022-10-31T09:14:32.302Z,51.215870
2022-10-31T09:15:32.282Z,51.215942
2022-10-31T09:16:32.294Z,51.215950
2022-10-31T09:17:32.277Z,51.215992
2022-10-31T09:18:32.261Z,51.216019
2022-10-31T09:19:32.257Z,51.216011
2022-10-31T09:20:32.281Z,51.216190
2022-10-31T09:21:32.252Z,51.216152
2022-10-31T09:22:32.249Z,51.216114
2022-10-31T09:23:32.249Z,51.216217
2022-10-31T09:24:32.233Z,51.216133
2022-10-31T09:25:32.246Z,51.216141
2022-10-31T09:26:32.227Z,51.216011
2022-10-31T09:27:32.205Z,51.216042
2022-10-31T09:28:32.190Z,51.216125
2022-10-31T09:29:32.193Z,51.216133
2022-10-31T09:30:32.188Z,51.215977
2022-10-31T09:31:32.227Z,51.215984
2022-10-31T09:32:32.177Z,51.216034
2022-10-31T09:33:32.165Z,51.216095
2022-10-31T09:34:32.165Z,51.216103
2022-10-31T09:35:32.159Z,51.216084
2022-10-31T09:36:32.177Z,51.216114
2022-10-31T09:37:32.148Z,51.216110
2022-10-31T09:38:32.149Z,51.216160
2022-10-31T09:39:32.134Z,51.216145
2022-10-31T09:40:32.125Z,51.216110
2022-10-31T09:41:32.138Z,51.216190
2022-10-31T09:42:32.110Z,51.216175
2022-10-31T09:43:32.113Z,51.216179
2022-10-31T09:44:32.101Z,51.216179
2022-10-31T09:45:32.097Z,51.216206
2022-10-31T09:46:32.097Z,51.216164
2022-10-31T09:47:32.130Z,51.216141
2022-10-31T09:48:32.079Z,51.216175
2022-10-31T09:49:32.161Z,51.216187
2022-10-31T09:50:32.073Z,51.216110
2022-10-31T09:51:32.069Z,51.216194
2022-10-31T09:52:32.066Z,51.216236
2022-10-31T09:53:32.060Z,51.216053
2022-10-31T09:54:32.050Z,51.216145
2022-10-31T09:55:32.043Z,51.216118
2022-10-31T09:56:32.032Z,51.216225
2022-10-31T09:57:32.045Z,51.216171
2022-10-31T09:58:34.095Z,51.216156
2022-10-31T09:59:32.025Z,51.216076
2022-10-31T10:00:32.055Z,51.216099
2022-10-31T10:01:32.166Z,51.216087
2022-10-31T10:02:32.037Z,51.215954
2022-10-31T10:03:32.006Z,51.215908
2022-10-31T10:04:31.995Z,51.215736
2022-10-31T10:05:31.990Z,51.215546
2022-10-31T10:06:31.982Z,51.215782
2022-10-31T10:07:31.987Z,51.215931
2022-10-31T10:08:31.985Z,51.215992
2022-10-31T10:09:31.992Z,51.215919
2022-10-31T10:10:31.954Z,51.215981
2022-10-31T10:11:31.953Z,51.215908
2022-10-31T10:12:31.947Z,51.215870
2022-10-31T10:13:31.953Z,51.215805
2022-10-31T10:14:31.938Z,51.215923
2022-10-31T10:15:31.925Z,51.215919
2022-10-31T10:16:31.918Z,51.216000
2022-10-31T10:17:31.917Z,51.215874
2022-10-31T10:18:31.929Z,51.216022
2022-10-31T10:19:31.923Z,51.216011
2022-10-31T10:20:31.898Z,51.215927
2022-10-31T10:21:31.898Z,51.215912
2022-10-31T10:22:31.910Z,51.215824
2022-10-31T10:23:31.883Z,51.215862
2022-10-31T10:24:31.893Z,51.215919
2022-10-31T10:25:31.870Z,51.215889
2022-10-31T10:27:31.864Z,51.216091
2022-10-31T10:28:31.853Z,51.216156
2022-10-31T10:29:31.845Z,51.216278
2022-10-31T10:30:31.859Z,51.216042
2022-10-31T10:31:31.843Z,51.216072
2022-10-31T10:32:31.830Z,51.216080
2022-10-31T10:33:31.830Z,51.216129
2022-10-31T10:34:31.825Z,51.216156
2022-10-31T10:35:31.821Z,51.216187
2022-10-31T10:36:31.813Z,51.216106
2022-10-31T10:37:31.834Z,51.216103
2022-10-31T10:38:31.801Z,51.215961
2022-10-31T10:39:31.801Z,51.216038
2022-10-31T10:40:31.826Z,51.216038
2022-10-31T10:41:34.260Z,51.216038
2022-10-31T10:42:32.787Z,51.216068
2022-10-31T10:43:31.797Z,51.216072
2022-10-31T10:44:31.808Z,51.216068
2022-10-31T10:45:31.769Z,51.216103
2022-10-31T10:46:31.777Z,51.216156
2022-10-31T10:47:31.780Z,51.215809
2022-10-31T10:48:31.749Z,51.215870
2022-10-31T10:49:32.757Z,51.216068
2022-10-31T10:50:31.744Z,51.216190
2022-10-31T10:51:46.356Z,51.216194
2022-10-31T10:52:46.056Z,51.216236
2022-10-31T10:53:33.732Z,51.216179
2022-10-31T10:54:31.725Z,51.216125
2022-10-31T10:55:31.721Z,51.216148
2022-10-31T10:56:31.735Z,51.216167
2022-10-31T10:57:31.714Z,51.216171
2022-10-31T10:58:31.712Z,51.216175
2022-10-31T10:59:31.697Z,51.216290
2022-10-31T11:00:31.810Z,51.216267
2022-10-31T11:01:31.696Z,51.216316
2022-10-31T11:02:31.697Z,51.216194
2022-10-31T11:03:31.672Z,51.216145
2022-10-31T11:04:31.683Z,51.216145
2022-10-31T11:05:31.668Z,51.216076
2022-10-31T11:06:31.663Z,51.216091
2022-10-31T11:07:31.652Z,51.216076
2022-10-31T11:08:31.651Z,51.216148
2022-10-31T11:09:31.631Z,51.216114
2022-10-31T11:10:31.680Z,51.216175
2022-10-31T11:11:31.644Z,51.216171
2022-10-31T11:12:31.636Z,51.216106
2022-10-31T11:13:31.644Z,51.216125
2022-10-31T11:14:31.621Z,51.216183
2022-10-31T11:15:31.617Z,51.216175
2022-10-31T11:16:33.600Z,51.216080
2022-10-31T11:17:32.612Z,51.216160
2022-10-31T11:18:31.617Z,51.216225
2022-10-31T11:19:31.598Z,51.216110
2022-10-31T11:20:31.587Z,51.216042
2022-10-31T11:21:31.576Z,51.215977
2022-10-31T11:22:31.582Z,51.216011
2022-10-31T11:23:31.577Z,51.216030
2022-10-31T11:24:31.568Z,51.215961
2022-10-31T11:25:31.570Z,51.215824
2022-10-31T11:26:31.560Z,51.216137